sensor_id;sensor_type;location;lat;lon;timestamp;P1;durP1;ratioP1;P2;durP2;ratioP2
22849;SDS011;11591;44.792;10.358;2023-01-10T00:01:59;15.23;;;8.13;;
22849;SDS011;11591;44.792;10.358;2023-01-10T00:04:24;13.77;;;7.47;;
22849;SDS011;11591;44.792;10.358;2023-01-10T00:06:51;15.95;;;7.47;;
22849;SDS011;11591;44.792;10.358;2023-01-10T00:09:16;15.15;;;7.18;;
22849;SDS011;11591;44.792;10.358;2023-01-10T00:11:42;14.35;;;6.53;;
22849;SDS011;11591;44.792;10.358;2023-01-10T00:14:27;12.60;;;6.47;;
22849;SDS011;11591;44.792;10.358;2023-01-10T00:16:54;13.60;;;7.47;;
22849;SDS011;11591;44.792;10.358;2023-01-10T00:19:20;15.45;;;7.10;;
22849;SDS011;11591;44.792;10.358;2023-01-10T00:21:46;15.63;;;7.13;;
22849;SDS011;11591;44.792;10.358;2023-01-10T00:24:12;13.05;;;7.35;;
22849;SDS011;11591;44.792;10.358;2023-01-10T00:26:43;13.18;;;6.95;;
22849;SDS011;11591;44.792;10.358;2023-01-10T00:29:19;13.95;;;6.70;;
22849;SDS011;11591;44.792;10.358;2023-01-10T00:31:47;15.00;;;7.57;;
22849;SDS011;11591;44.792;10.358;2023-01-10T00:34:13;11.75;;;6.82;;
22849;SDS011;11591;44.792;10.358;2023-01-10T00:36:39;17.58;;;7.22;;
22849;SDS011;11591;44.792;10.358;2023-01-10T00:39:06;16.10;;;7.07;;
22849;SDS011;11591;44.792;10.358;2023-01-10T00:41:33;16.38;;;7.32;;
22849;SDS011;11591;44.792;10.358;2023-01-10T00:44:17;15.35;;;7.93;;
22849;SDS011;11591;44.792;10.358;2023-01-10T00:46:43;13.90;;;6.82;;
22849;SDS011;11591;44.792;10.358;2023-01-10T00:49:08;15.05;;;7.15;;
22849;SDS011;11591;44.792;10.358;2023-01-10T00:51:36;15.52;;;7.50;;
22849;SDS011;11591;44.792;10.358;2023-01-10T00:54:02;13.30;;;7.13;;
22849;SDS011;11591;44.792;10.358;2023-01-10T00:56:28;16.30;;;7.28;;
22849;SDS011;11591;44.792;10.358;2023-01-10T00:58:54;14.60;;;7.25;;
22849;SDS011;11591;44.792;10.358;2023-01-10T01:01:19;12.60;;;7.13;;
22849;SDS011;11591;44.792;10.358;2023-01-10T01:03:45;15.02;;;6.88;;
22849;SDS011;11591;44.792;10.358;2023-01-10T01:06:11;12.63;;;7.10;;
22849;SDS011;11591;44.792;10.358;2023-01-10T01:08:37;14.75;;;7.80;;
22849;SDS011;11591;44.792;10.358;2023-01-10T01:11:03;13.35;;;6.95;;
22849;SDS011;11591;44.792;10.358;2023-01-10T01:13:28;15.23;;;7.28;;
22849;SDS011;11591;44.792;10.358;2023-01-10T01:15:57;16.23;;;7.07;;
22849;SDS011;11591;44.792;10.358;2023-01-10T01:18:24;14.77;;;6.82;;
22849;SDS011;11591;44.792;10.358;2023-01-10T01:20:54;15.27;;;8.65;;
22849;SDS011;11591;44.792;10.358;2023-01-10T01:23:22;20.45;;;9.57;;
22849;SDS011;11591;44.792;10.358;2023-01-10T01:25:52;15.57;;;7.63;;
22849;SDS011;11591;44.792;10.358;2023-01-10T01:28:18;15.73;;;7.65;;
22849;SDS011;11591;44.792;10.358;2023-01-10T01:30:44;16.98;;;7.85;;
22849;SDS011;11591;44.792;10.358;2023-01-10T01:33:10;13.88;;;7.38;;
22849;SDS011;11591;44.792;10.358;2023-01-10T01:35:36;15.88;;;7.78;;
22849;SDS011;11591;44.792;10.358;2023-01-10T01:38:01;16.05;;;7.53;;
22849;SDS011;11591;44.792;10.358;2023-01-10T01:40:27;14.13;;;7.40;;
22849;SDS011;11591;44.792;10.358;2023-01-10T01:42:53;12.63;;;6.68;;
22849;SDS011;11591;44.792;10.358;2023-01-10T01:47:52;17.98;;;7.40;;
22849;SDS011;11591;44.792;10.358;2023-01-10T01:50:23;14.35;;;7.22;;
22849;SDS011;11591;44.792;10.358;2023-01-10T01:53:10;12.63;;;6.80;;
22849;SDS011;11591;44.792;10.358;2023-01-10T01:55:41;12.80;;;6.30;;
22849;SDS011;11591;44.792;10.358;2023-01-10T01:58:11;14.95;;;6.70;;
22849;SDS011;11591;44.792;10.358;2023-01-10T02:00:40;12.95;;;6.63;;
22849;SDS011;11591;44.792;10.358;2023-01-10T02:03:06;14.48;;;6.90;;
22849;SDS011;11591;44.792;10.358;2023-01-10T02:05:32;14.30;;;7.65;;
22849;SDS011;11591;44.792;10.358;2023-01-10T02:08:00;13.55;;;7.15;;
22849;SDS011;11591;44.792;10.358;2023-01-10T02:13:08;13.40;;;7.10;;
22849;SDS011;11591;44.792;10.358;2023-01-10T02:15:36;14.48;;;6.82;;
22849;SDS011;11591;44.792;10.358;2023-01-10T02:18:01;11.13;;;5.95;;
22849;SDS011;11591;44.792;10.358;2023-01-10T02:20:29;11.10;;;5.82;;
22849;SDS011;11591;44.792;10.358;2023-01-10T02:34:59;14.93;;;6.35;;
22849;SDS011;11591;44.792;10.358;2023-01-10T02:37:58;11.20;;;6.00;;
22849;SDS011;11591;44.792;10.358;2023-01-10T02:40:51;12.93;;;6.30;;
22849;SDS011;11591;44.792;10.358;2023-01-10T02:43:29;11.88;;;6.38;;
22849;SDS011;11591;44.792;10.358;2023-01-10T02:46:12;14.10;;;6.05;;
22849;SDS011;11591;44.792;10.358;2023-01-10T02:48:41;10.75;;;5.57;;
22849;SDS011;11591;44.792;10.358;2023-01-10T02:51:13;11.95;;;6.43;;
22849;SDS011;11591;44.792;10.358;2023-01-10T02:53:46;12.63;;;5.78;;
22849;SDS011;11591;44.792;10.358;2023-01-10T02:56:24;10.10;;;5.18;;
22849;SDS011;11591;44.792;10.358;2023-01-10T03:07:16;14.13;;;7.60;;
22849;SDS011;11591;44.792;10.358;2023-01-10T03:13:11;10.98;;;5.80;;
22849;SDS011;11591;44.792;10.358;2023-01-10T03:15:51;10.55;;;5.43;;
22849;SDS011;11591;44.792;10.358;2023-01-10T03:18:41;10.85;;;4.90;;
22849;SDS011;11591;44.792;10.358;2023-01-10T03:21:25;13.82;;;5.18;;
22849;SDS011;11591;44.792;10.358;2023-01-10T03:23:54;13.13;;;5.70;;
22849;SDS011;11591;44.792;10.358;2023-01-10T03:26:26;11.30;;;5.45;;
22849;SDS011;11591;44.792;10.358;2023-01-10T03:29:07;9.85;;;5.20;;
22849;SDS011;11591;44.792;10.358;2023-01-10T03:31:43;11.38;;;5.30;;
22849;SDS011;11591;44.792;10.358;2023-01-10T03:34:14;11.75;;;4.90;;
22849;SDS011;11591;44.792;10.358;2023-01-10T03:39:08;9.45;;;5.30;;
22849;SDS011;11591;44.792;10.358;2023-01-10T03:41:58;12.75;;;5.82;;
22849;SDS011;11591;44.792;10.358;2023-01-10T03:44:34;9.00;;;4.68;;
22849;SDS011;11591;44.792;10.358;2023-01-10T03:47:10;10.63;;;5.53;;
22849;SDS011;11591;44.792;10.358;2023-01-10T03:49:41;10.95;;;4.80;;
22849;SDS011;11591;44.792;10.358;2023-01-10T03:52:10;10.18;;;5.05;;
22849;SDS011;11591;44.792;10.358;2023-01-10T03:54:41;7.38;;;4.68;;
22849;SDS011;11591;44.792;10.358;2023-01-10T03:57:14;7.82;;;4.35;;
22849;SDS011;11591;44.792;10.358;2023-01-10T03:59:43;8.77;;;4.60;;
22849;SDS011;11591;44.792;10.358;2023-01-10T04:02:10;8.05;;;3.33;;
22849;SDS011;11591;44.792;10.358;2023-01-10T04:04:36;7.28;;;3.63;;
22849;SDS011;11591;44.792;10.358;2023-01-10T04:07:02;5.13;;;2.90;;
22849;SDS011;11591;44.792;10.358;2023-01-10T04:09:28;7.28;;;3.13;;
22849;SDS011;11591;44.792;10.358;2023-01-10T04:11:53;5.82;;;3.15;;
22849;SDS011;11591;44.792;10.358;2023-01-10T04:14:19;6.15;;;2.92;;
22849;SDS011;11591;44.792;10.358;2023-01-10T04:16:45;7.55;;;2.90;;
22849;SDS011;11591;44.792;10.358;2023-01-10T04:19:10;5.20;;;2.75;;
22849;SDS011;11591;44.792;10.358;2023-01-10T04:21:36;7.47;;;2.70;;
22849;SDS011;11591;44.792;10.358;2023-01-10T04:24:02;4.15;;;1.92;;
22849;SDS011;11591;44.792;10.358;2023-01-10T04:26:28;3.05;;;1.90;;
22849;SDS011;11591;44.792;10.358;2023-01-10T04:28:53;4.05;;;1.98;;
22849;SDS011;11591;44.792;10.358;2023-01-10T04:31:19;3.15;;;1.70;;
22849;SDS011;11591;44.792;10.358;2023-01-10T04:33:46;3.22;;;1.60;;
22849;SDS011;11591;44.792;10.358;2023-01-10T04:36:12;2.45;;;1.60;;
22849;SDS011;11591;44.792;10.358;2023-01-10T04:38:38;1.88;;;1.10;;
22849;SDS011;11591;44.792;10.358;2023-01-10T04:41:04;4.82;;;1.55;;
22849;SDS011;11591;44.792;10.358;2023-01-10T04:43:30;2.83;;;1.20;;
22849;SDS011;11591;44.792;10.358;2023-01-10T04:45:55;1.92;;;1.15;;
22849;SDS011;11591;44.792;10.358;2023-01-10T04:48:21;2.05;;;0.95;;
22849;SDS011;11591;44.792;10.358;2023-01-10T04:50:50;1.00;;;0.70;;
22849;SDS011;11591;44.792;10.358;2023-01-10T04:53:17;2.70;;;0.85;;
22849;SDS011;11591;44.792;10.358;2023-01-10T04:55:43;1.27;;;0.70;;
22849;SDS011;11591;44.792;10.358;2023-01-10T04:58:09;1.13;;;0.60;;
22849;SDS011;11591;44.792;10.358;2023-01-10T05:00:35;0.82;;;0.52;;
22849;SDS011;11591;44.792;10.358;2023-01-10T05:03:00;0.68;;;0.30;;
22849;SDS011;11591;44.792;10.358;2023-01-10T05:05:26;0.88;;;0.32;;
22849;SDS011;11591;44.792;10.358;2023-01-10T05:07:53;0.28;;;0.20;;
22849;SDS011;11591;44.792;10.358;2023-01-10T05:10:19;1.17;;;0.30;;
22849;SDS011;11591;44.792;10.358;2023-01-10T05:12:45;1.00;;;0.30;;
22849;SDS011;11591;44.792;10.358;2023-01-10T05:15:11;0.20;;;0.10;;
22849;SDS011;11591;44.792;10.358;2023-01-10T05:17:37;0.75;;;0.20;;
22849;SDS011;11591;44.792;10.358;2023-01-10T05:20:03;1.00;;;0.35;;
22849;SDS011;11591;44.792;10.358;2023-01-10T05:22:30;0.30;;;0.10;;
22849;SDS011;11591;44.792;10.358;2023-01-10T05:24:55;0.10;;;0.10;;
22849;SDS011;11591;44.792;10.358;2023-01-10T05:27:21;1.25;;;0.65;;
22849;SDS011;11591;44.792;10.358;2023-01-10T05:29:47;2.00;;;0.52;;
22849;SDS011;11591;44.792;10.358;2023-01-10T05:32:13;0.40;;;0.20;;
22849;SDS011;11591;44.792;10.358;2023-01-10T05:34:38;0.30;;;0.20;;
22849;SDS011;11591;44.792;10.358;2023-01-10T05:37:04;0.68;;;0.30;;
22849;SDS011;11591;44.792;10.358;2023-01-10T05:39:30;3.63;;;0.20;;
22849;SDS011;11591;44.792;10.358;2023-01-10T05:41:55;0.25;;;0.10;;
22849;SDS011;11591;44.792;10.358;2023-01-10T05:44:21;0.90;;;0.30;;
22849;SDS011;11591;44.792;10.358;2023-01-10T05:46:47;3.63;;;0.20;;
22849;SDS011;11591;44.792;10.358;2023-01-10T05:49:13;0.68;;;0.22;;
22849;SDS011;11591;44.792;10.358;2023-01-10T05:51:39;0.55;;;0.30;;
22849;SDS011;11591;44.792;10.358;2023-01-10T05:54:06;0.82;;;0.10;;
22849;SDS011;11591;44.792;10.358;2023-01-10T05:56:32;0.30;;;0.10;;
22849;SDS011;11591;44.792;10.358;2023-01-10T05:58:58;2.40;;;0.20;;
22849;SDS011;11591;44.792;10.358;2023-01-10T06:01:24;0.47;;;0.15;;
22849;SDS011;11591;44.792;10.358;2023-01-10T06:03:50;0.88;;;0.30;;
22849;SDS011;11591;44.792;10.358;2023-01-10T06:06:15;2.00;;;0.13;;
22849;SDS011;11591;44.792;10.358;2023-01-10T06:08:41;0.68;;;0.28;;
22849;SDS011;11591;44.792;10.358;2023-01-10T06:11:07;0.50;;;0.20;;
22849;SDS011;11591;44.792;10.358;2023-01-10T06:13:33;0.30;;;0.20;;
22849;SDS011;11591;44.792;10.358;2023-01-10T06:15:58;0.45;;;0.28;;
22849;SDS011;11591;44.792;10.358;2023-01-10T06:18:24;0.30;;;0.15;;
22849;SDS011;11591;44.792;10.358;2023-01-10T06:20:50;0.57;;;0.10;;
22849;SDS011;11591;44.792;10.358;2023-01-10T06:23:16;2.25;;;0.38;;
22849;SDS011;11591;44.792;10.358;2023-01-10T06:25:42;1.42;;;0.13;;
22849;SDS011;11591;44.792;10.358;2023-01-10T06:28:10;0.50;;;0.22;;
22849;SDS011;11591;44.792;10.358;2023-01-10T06:30:37;0.45;;;0.20;;
22849;SDS011;11591;44.792;10.358;2023-01-10T06:33:06;3.22;;;0.30;;
22849;SDS011;11591;44.792;10.358;2023-01-10T06:35:33;0.45;;;0.15;;
22849;SDS011;11591;44.792;10.358;2023-01-10T06:38:00;0.80;;;0.30;;
22849;SDS011;11591;44.792;10.358;2023-01-10T06:40:26;0.30;;;0.20;;
22849;SDS011;11591;44.792;10.358;2023-01-10T06:42:53;2.65;;;0.10;;
22849;SDS011;11591;44.792;10.358;2023-01-10T06:45:19;1.38;;;0.32;;
22849;SDS011;11591;44.792;10.358;2023-01-10T06:47:45;0.77;;;0.20;;
22849;SDS011;11591;44.792;10.358;2023-01-10T06:50:11;0.65;;;0.30;;
22849;SDS011;11591;44.792;10.358;2023-01-10T06:52:38;0.45;;;0.30;;
22849;SDS011;11591;44.792;10.358;2023-01-10T06:55:04;0.77;;;0.30;;
22849;SDS011;11591;44.792;10.358;2023-01-10T06:57:31;0.50;;;0.30;;
22849;SDS011;11591;44.792;10.358;2023-01-10T07:00:00;0.40;;;0.20;;
22849;SDS011;11591;44.792;10.358;2023-01-10T07:02:27;0.98;;;0.30;;
22849;SDS011;11591;44.792;10.358;2023-01-10T07:04:53;0.75;;;0.22;;
22849;SDS011;11591;44.792;10.358;2023-01-10T07:07:19;2.33;;;0.30;;
22849;SDS011;11591;44.792;10.358;2023-01-10T07:09:45;1.92;;;0.10;;
22849;SDS011;11591;44.792;10.358;2023-01-10T07:12:11;1.65;;;0.30;;
22849;SDS011;11591;44.792;10.358;2023-01-10T07:14:37;1.17;;;0.40;;
22849;SDS011;11591;44.792;10.358;2023-01-10T07:17:03;2.30;;;0.20;;
22849;SDS011;11591;44.792;10.358;2023-01-10T07:19:29;1.25;;;0.25;;
22849;SDS011;11591;44.792;10.358;2023-01-10T07:21:54;1.13;;;0.25;;
22849;SDS011;11591;44.792;10.358;2023-01-10T07:24:20;1.67;;;0.38;;
22849;SDS011;11591;44.792;10.358;2023-01-10T07:26:46;0.63;;;0.30;;
22849;SDS011;11591;44.792;10.358;2023-01-10T07:29:12;7.50;;;0.40;;
22849;SDS011;11591;44.792;10.358;2023-01-10T07:31:37;0.68;;;0.30;;
22849;SDS011;11591;44.792;10.358;2023-01-10T07:34:03;4.47;;;0.68;;
22849;SDS011;11591;44.792;10.358;2023-01-10T07:36:29;1.60;;;0.60;;
22849;SDS011;11591;44.792;10.358;2023-01-10T07:38:55;0.40;;;0.25;;
22849;SDS011;11591;44.792;10.358;2023-01-10T07:41:20;0.55;;;0.20;;
22849;SDS011;11591;44.792;10.358;2023-01-10T07:43:46;3.80;;;0.30;;
22849;SDS011;11591;44.792;10.358;2023-01-10T07:46:13;0.85;;;0.30;;
22849;SDS011;11591;44.792;10.358;2023-01-10T07:48:40;3.25;;;0.20;;
22849;SDS011;11591;44.792;10.358;2023-01-10T07:51:06;2.67;;;0.22;;
22849;SDS011;11591;44.792;10.358;2023-01-10T07:53:32;4.43;;;0.38;;
22849;SDS011;11591;44.792;10.358;2023-01-10T07:55:58;0.77;;;0.20;;
22849;SDS011;11591;44.792;10.358;2023-01-10T07:58:26;2.53;;;0.35;;
22849;SDS011;11591;44.792;10.358;2023-01-10T08:00:56;0.80;;;0.22;;
22849;SDS011;11591;44.792;10.358;2023-01-10T08:03:25;0.38;;;0.20;;
22849;SDS011;11591;44.792;10.358;2023-01-10T08:06:00;1.08;;;0.30;;
22849;SDS011;11591;44.792;10.358;2023-01-10T08:08:30;0.57;;;0.20;;
22849;SDS011;11591;44.792;10.358;2023-01-10T08:10:57;1.13;;;0.20;;
22849;SDS011;11591;44.792;10.358;2023-01-10T08:13:29;0.38;;;0.10;;
22849;SDS011;11591;44.792;10.358;2023-01-10T08:15:56;2.03;;;0.30;;
22849;SDS011;11591;44.792;10.358;2023-01-10T08:18:22;0.43;;;0.20;;
22849;SDS011;11591;44.792;10.358;2023-01-10T08:20:49;0.70;;;0.30;;
22849;SDS011;11591;44.792;10.358;2023-01-10T08:23:17;3.60;;;0.30;;
22849;SDS011;11591;44.792;10.358;2023-01-10T08:25:44;0.52;;;0.30;;
22849;SDS011;11591;44.792;10.358;2023-01-10T08:28:10;1.20;;;0.32;;
22849;SDS011;11591;44.792;10.358;2023-01-10T08:30:37;0.70;;;0.30;;
22849;SDS011;11591;44.792;10.358;2023-01-10T08:33:04;0.73;;;0.20;;
22849;SDS011;11591;44.792;10.358;2023-01-10T08:35:35;0.50;;;0.30;;
22849;SDS011;11591;44.792;10.358;2023-01-10T08:38:06;1.25;;;0.25;;
22849;SDS011;11591;44.792;10.358;2023-01-10T08:40:38;0.43;;;0.20;;
22849;SDS011;11591;44.792;10.358;2023-01-10T08:43:05;0.47;;;0.20;;
22849;SDS011;11591;44.792;10.358;2023-01-10T08:45:33;0.70;;;0.30;;
22849;SDS011;11591;44.792;10.358;2023-01-10T08:48:01;0.80;;;0.15;;
22849;SDS011;11591;44.792;10.358;2023-01-10T08:50:28;0.82;;;0.30;;
22849;SDS011;11591;44.792;10.358;2023-01-10T08:52:58;1.85;;;0.30;;
22849;SDS011;11591;44.792;10.358;2023-01-10T08:55:24;2.92;;;0.40;;
22849;SDS011;11591;44.792;10.358;2023-01-10T08:57:51;0.32;;;0.20;;
22849;SDS011;11591;44.792;10.358;2023-01-10T09:00:17;0.35;;;0.20;;
22849;SDS011;11591;44.792;10.358;2023-01-10T09:02:43;1.23;;;0.25;;
22849;SDS011;11591;44.792;10.358;2023-01-10T09:05:09;4.68;;;1.00;;
22849;SDS011;11591;44.792;10.358;2023-01-10T09:07:35;0.80;;;0.20;;
22849;SDS011;11591;44.792;10.358;2023-01-10T09:10:02;0.40;;;0.30;;
22849;SDS011;11591;44.792;10.358;2023-01-10T09:12:28;0.85;;;0.20;;
22849;SDS011;11591;44.792;10.358;2023-01-10T09:15:13;9.85;;;0.52;;
22849;SDS011;11591;44.792;10.358;2023-01-10T09:17:38;0.20;;;0.20;;
22849;SDS011;11591;44.792;10.358;2023-01-10T09:20:04;1.10;;;0.10;;
22849;SDS011;11591;44.792;10.358;2023-01-10T09:22:34;0.43;;;0.20;;
22849;SDS011;11591;44.792;10.358;2023-01-10T09:25:01;0.45;;;0.13;;
22849;SDS011;11591;44.792;10.358;2023-01-10T09:27:27;1.08;;;0.20;;
22849;SDS011;11591;44.792;10.358;2023-01-10T09:29:53;1.73;;;0.20;;
22849;SDS011;11591;44.792;10.358;2023-01-10T09:32:19;4.63;;;0.32;;
22849;SDS011;11591;44.792;10.358;2023-01-10T09:34:45;0.38;;;0.10;;
22849;SDS011;11591;44.792;10.358;2023-01-10T09:37:10;1.27;;;0.20;;
22849;SDS011;11591;44.792;10.358;2023-01-10T09:39:36;0.45;;;0.20;;
22849;SDS011;11591;44.792;10.358;2023-01-10T09:47:58;0.10;;;0.10;;
22849;SDS011;11591;44.792;10.358;2023-01-10T09:53:20;1.35;;;0.20;;
22849;SDS011;11591;44.792;10.358;2023-01-10T09:55:53;0.50;;;0.25;;
22849;SDS011;11591;44.792;10.358;2023-01-10T09:58:24;0.65;;;0.25;;
22849;SDS011;11591;44.792;10.358;2023-01-10T10:00:57;2.50;;;0.20;;
22849;SDS011;11591;44.792;10.358;2023-01-10T10:06:17;0.38;;;0.20;;
22849;SDS011;11591;44.792;10.358;2023-01-10T10:08:46;4.22;;;0.50;;
22849;SDS011;11591;44.792;10.358;2023-01-10T10:19:32;0.70;;;0.20;;
22849;SDS011;11591;44.792;10.358;2023-01-10T10:35:49;0.95;;;0.20;;
22849;SDS011;11591;44.792;10.358;2023-01-10T10:38:28;0.93;;;0.40;;
22849;SDS011;11591;44.792;10.358;2023-01-10T10:41:01;0.80;;;0.28;;
22849;SDS011;11591;44.792;10.358;2023-01-10T10:43:32;2.35;;;0.20;;
22849;SDS011;11591;44.792;10.358;2023-01-10T10:49:21;0.75;;;0.20;;
22849;SDS011;11591;44.792;10.358;2023-01-10T10:51:43;2.15;;;0.85;;
22849;SDS011;11591;44.792;10.358;2023-01-10T10:54:16;1.95;;;0.63;;
22849;SDS011;11591;44.792;10.358;2023-01-10T10:56:42;0.88;;;0.22;;
22849;SDS011;11591;44.792;10.358;2023-01-10T10:59:09;1.70;;;0.20;;
22849;SDS011;11591;44.792;10.358;2023-01-10T11:01:44;1.08;;;0.20;;
22849;SDS011;11591;44.792;10.358;2023-01-10T11:04:13;0.47;;;0.20;;
22849;SDS011;11591;44.792;10.358;2023-01-10T11:06:42;0.20;;;0.13;;
22849;SDS011;11591;44.792;10.358;2023-01-10T11:09:13;2.28;;;0.13;;
22849;SDS011;11591;44.792;10.358;2023-01-10T11:11:46;0.70;;;0.30;;
22849;SDS011;11591;44.792;10.358;2023-01-10T11:14:14;0.32;;;0.30;;
22849;SDS011;11591;44.792;10.358;2023-01-10T11:22:48;5.82;;;0.20;;
22849;SDS011;11591;44.792;10.358;2023-01-10T11:25:19;3.15;;;0.28;;
22849;SDS011;11591;44.792;10.358;2023-01-10T11:30:17;0.45;;;0.38;;
22849;SDS011;11591;44.792;10.358;2023-01-10T11:32:48;2.92;;;0.28;;
22849;SDS011;11591;44.792;10.358;2023-01-10T11:35:37;0.65;;;0.30;;
22849;SDS011;11591;44.792;10.358;2023-01-10T11:38:18;0.73;;;0.22;;
22849;SDS011;11591;44.792;10.358;2023-01-10T11:40:54;1.17;;;0.22;;
22849;SDS011;11591;44.792;10.358;2023-01-10T11:43:22;4.13;;;0.50;;
22849;SDS011;11591;44.792;10.358;2023-01-10T11:45:57;1.10;;;0.40;;
22849;SDS011;11591;44.792;10.358;2023-01-10T11:48:45;0.65;;;0.30;;
22849;SDS011;11591;44.792;10.358;2023-01-10T11:51:30;0.45;;;0.20;;
22849;SDS011;11591;44.792;10.358;2023-01-10T11:56:35;1.13;;;0.25;;
22849;SDS011;11591;44.792;10.358;2023-01-10T11:59:10;1.05;;;0.47;;
22849;SDS011;11591;44.792;10.358;2023-01-10T12:04:39;4.32;;;0.30;;
22849;SDS011;11591;44.792;10.358;2023-01-10T12:07:10;0.93;;;0.25;;
22849;SDS011;11591;44.792;10.358;2023-01-10T12:09:37;0.40;;;0.22;;
22849;SDS011;11591;44.792;10.358;2023-01-10T12:12:22;1.17;;;0.30;;
22849;SDS011;11591;44.792;10.358;2023-01-10T12:15:01;3.92;;;0.43;;
22849;SDS011;11591;44.792;10.358;2023-01-10T12:17:46;0.88;;;0.30;;
22849;SDS011;11591;44.792;10.358;2023-01-10T12:20:12;1.88;;;0.40;;
22849;SDS011;11591;44.792;10.358;2023-01-10T12:22:40;4.45;;;0.28;;
22849;SDS011;11591;44.792;10.358;2023-01-10T12:25:32;2.92;;;0.60;;
22849;SDS011;11591;44.792;10.358;2023-01-10T12:28:00;2.20;;;0.43;;
22849;SDS011;11591;44.792;10.358;2023-01-10T12:32:59;0.95;;;0.30;;
22849;SDS011;11591;44.792;10.358;2023-01-10T12:35:35;0.80;;;0.40;;
22849;SDS011;11591;44.792;10.358;2023-01-10T12:38:18;1.42;;;0.30;;
22849;SDS011;11591;44.792;10.358;2023-01-10T12:41:08;0.60;;;0.25;;
22849;SDS011;11591;44.792;10.358;2023-01-10T12:43:57;0.82;;;0.30;;
22849;SDS011;11591;44.792;10.358;2023-01-10T12:46:46;0.20;;;0.10;;
22849;SDS011;11591;44.792;10.358;2023-01-10T12:51:50;0.43;;;0.20;;
22849;SDS011;11591;44.792;10.358;2023-01-10T12:54:22;1.23;;;0.30;;
22849;SDS011;11591;44.792;10.358;2023-01-10T12:56:52;0.85;;;0.20;;
22849;SDS011;11591;44.792;10.358;2023-01-10T12:59:23;1.02;;;0.57;;
22849;SDS011;11591;44.792;10.358;2023-01-10T13:01:55;1.75;;;0.88;;
22849;SDS011;11591;44.792;10.358;2023-01-10T13:04:26;1.50;;;0.82;;
22849;SDS011;11591;44.792;10.358;2023-01-10T13:06:56;6.57;;;1.00;;
22849;SDS011;11591;44.792;10.358;2023-01-10T13:09:26;0.65;;;0.20;;
22849;SDS011;11591;44.792;10.358;2023-01-10T13:11:58;0.50;;;0.13;;
22849;SDS011;11591;44.792;10.358;2023-01-10T13:14:27;1.38;;;0.40;;
22849;SDS011;11591;44.792;10.358;2023-01-10T13:22:46;0.52;;;0.30;;
22849;SDS011;11591;44.792;10.358;2023-01-10T13:25:20;1.90;;;0.40;;
22849;SDS011;11591;44.792;10.358;2023-01-10T13:27:51;1.52;;;0.30;;
22849;SDS011;11591;44.792;10.358;2023-01-10T13:30:31;3.40;;;0.47;;
22849;SDS011;11591;44.792;10.358;2023-01-10T13:33:05;1.00;;;0.25;;
22849;SDS011;11591;44.792;10.358;2023-01-10T13:35:39;1.13;;;0.30;;
22849;SDS011;11591;44.792;10.358;2023-01-10T13:41:01;0.60;;;0.30;;
22849;SDS011;11591;44.792;10.358;2023-01-10T13:51:15;0.17;;;0.17;;
22849;SDS011;11591;44.792;10.358;2023-01-10T13:59:00;1.83;;;0.40;;
22849;SDS011;11591;44.792;10.358;2023-01-10T14:01:41;0.55;;;0.30;;
22849;SDS011;11591;44.792;10.358;2023-01-10T14:04:32;2.05;;;0.20;;
22849;SDS011;11591;44.792;10.358;2023-01-10T14:09:47;1.02;;;0.30;;
22849;SDS011;11591;44.792;10.358;2023-01-10T14:13:01;1.88;;;0.40;;
22849;SDS011;11591;44.792;10.358;2023-01-10T14:15:26;4.28;;;1.42;;
22849;SDS011;11591;44.792;10.358;2023-01-10T14:20:25;1.80;;;0.80;;
22849;SDS011;11591;44.792;10.358;2023-01-10T14:23:04;1.30;;;0.45;;
22849;SDS011;11591;44.792;10.358;2023-01-10T14:25:53;0.40;;;0.30;;
22849;SDS011;11591;44.792;10.358;2023-01-10T14:28:22;7.78;;;0.47;;
22849;SDS011;11591;44.792;10.358;2023-01-10T14:31:17;0.60;;;0.30;;
22849;SDS011;11591;44.792;10.358;2023-01-10T14:33:42;1.02;;;0.47;;
22849;SDS011;11591;44.792;10.358;2023-01-10T14:36:13;2.85;;;0.43;;
22849;SDS011;11591;44.792;10.358;2023-01-10T14:38:43;1.17;;;0.50;;
22849;SDS011;11591;44.792;10.358;2023-01-10T14:43:52;0.57;;;0.30;;
22849;SDS011;11591;44.792;10.358;2023-01-10T14:46:41;1.88;;;0.38;;
22849;SDS011;11591;44.792;10.358;2023-01-10T14:49:20;1.05;;;0.40;;
22849;SDS011;11591;44.792;10.358;2023-01-10T14:52:09;2.42;;;0.60;;
22849;SDS011;11591;44.792;10.358;2023-01-10T14:54:44;3.05;;;0.70;;
22849;SDS011;11591;44.792;10.358;2023-01-10T14:57:18;0.70;;;0.30;;
22849;SDS011;11591;44.792;10.358;2023-01-10T14:59:46;1.35;;;0.50;;
22849;SDS011;11591;44.792;10.358;2023-01-10T15:02:21;1.98;;;0.50;;
22849;SDS011;11591;44.792;10.358;2023-01-10T15:05:00;2.50;;;0.60;;
22849;SDS011;11591;44.792;10.358;2023-01-10T15:07:33;3.20;;;0.52;;
22849;SDS011;11591;44.792;10.358;2023-01-10T15:10:00;1.55;;;0.60;;
22849;SDS011;11591;44.792;10.358;2023-01-10T15:12:34;1.88;;;0.43;;
22849;SDS011;11591;44.792;10.358;2023-01-10T15:15:03;0.80;;;0.50;;
22849;SDS011;11591;44.792;10.358;2023-01-10T15:17:32;1.90;;;0.55;;
22849;SDS011;11591;44.792;10.358;2023-01-10T15:20:00;1.88;;;0.60;;
22849;SDS011;11591;44.792;10.358;2023-01-10T15:22:28;3.03;;;0.50;;
22849;SDS011;11591;44.792;10.358;2023-01-10T15:24:57;0.85;;;0.60;;
22849;SDS011;11591;44.792;10.358;2023-01-10T15:27:27;3.72;;;0.73;;
22849;SDS011;11591;44.792;10.358;2023-01-10T15:29:57;4.53;;;0.70;;
22849;SDS011;11591;44.792;10.358;2023-01-10T15:32:33;3.30;;;0.60;;
22849;SDS011;11591;44.792;10.358;2023-01-10T15:35:03;1.67;;;0.70;;
22849;SDS011;11591;44.792;10.358;2023-01-10T15:37:36;0.70;;;0.40;;
22849;SDS011;11591;44.792;10.358;2023-01-10T15:40:06;1.75;;;0.63;;
22849;SDS011;11591;44.792;10.358;2023-01-10T15:42:44;1.17;;;0.40;;
22849;SDS011;11591;44.792;10.358;2023-01-10T15:45:17;3.13;;;0.55;;
22849;SDS011;11591;44.792;10.358;2023-01-10T15:47:51;2.42;;;0.93;;
22849;SDS011;11591;44.792;10.358;2023-01-10T15:53:06;3.40;;;1.13;;
22849;SDS011;11591;44.792;10.358;2023-01-10T16:00:51;2.40;;;1.20;;
22849;SDS011;11591;44.792;10.358;2023-01-10T16:03:30;3.33;;;1.63;;
22849;SDS011;11591;44.792;10.358;2023-01-10T16:06:02;3.13;;;0.98;;
22849;SDS011;11591;44.792;10.358;2023-01-10T16:08:33;1.65;;;0.70;;
22849;SDS011;11591;44.792;10.358;2023-01-10T16:11:13;1.38;;;0.80;;
22849;SDS011;11591;44.792;10.358;2023-01-10T16:14:03;2.13;;;0.90;;
22849;SDS011;11591;44.792;10.358;2023-01-10T16:16:29;5.50;;;0.70;;
22849;SDS011;11591;44.792;10.358;2023-01-10T16:18:55;5.43;;;0.60;;
22849;SDS011;11591;44.792;10.358;2023-01-10T16:21:21;4.97;;;2.63;;
22849;SDS011;11591;44.792;10.358;2023-01-10T16:23:55;5.45;;;2.10;;
22849;SDS011;11591;44.792;10.358;2023-01-10T16:26:24;9.77;;;5.28;;
22849;SDS011;11591;44.792;10.358;2023-01-10T16:28:50;3.58;;;1.50;;
22849;SDS011;11591;44.792;10.358;2023-01-10T16:31:15;4.95;;;1.20;;
22849;SDS011;11591;44.792;10.358;2023-01-10T16:33:41;1.98;;;1.08;;
22849;SDS011;11591;44.792;10.358;2023-01-10T16:36:13;6.50;;;1.30;;
22849;SDS011;11591;44.792;10.358;2023-01-10T16:38:41;1.90;;;1.05;;
22849;SDS011;11591;44.792;10.358;2023-01-10T16:41:10;4.30;;;0.90;;
22849;SDS011;11591;44.792;10.358;2023-01-10T16:43:55;3.45;;;1.20;;
22849;SDS011;11591;44.792;10.358;2023-01-10T16:46:21;5.25;;;0.90;;
22849;SDS011;11591;44.792;10.358;2023-01-10T16:48:48;4.45;;;0.90;;
22849;SDS011;11591;44.792;10.358;2023-01-10T16:51:20;4.93;;;1.10;;
22849;SDS011;11591;44.792;10.358;2023-01-10T16:53:51;3.88;;;1.00;;